sensor_id;sensor_type;location;lat;lon;timestamp;P1;durP1;ratioP1;P2;durP2;ratioP2
63581;SDS011;49727;51.078;17.066;2023-05-10T00:14:19;10.43;;;4.15;;
63581;SDS011;49727;51.078;17.066;2023-05-10T00:29:20;9.00;;;4.93;;
63581;SDS011;49727;51.078;17.066;2023-05-10T00:44:20;7.07;;;4.30;;
63581;SDS011;49727;51.078;17.066;2023-05-10T00:59:20;9.15;;;4.55;;
63581;SDS011;49727;51.078;17.066;2023-05-10T01:14:21;10.18;;;4.80;;
63581;SDS011;49727;51.078;17.066;2023-05-10T01:29:29;10.00;;;4.97;;
63581;SDS011;49727;51.078;17.066;2023-05-10T01:44:42;7.25;;;4.55;;
63581;SDS011;49727;51.078;17.066;2023-05-10T01:59:44;10.80;;;5.75;;
63581;SDS011;49727;51.078;17.066;2023-05-10T02:14:49;11.18;;;5.78;;
63581;SDS011;49727;51.078;17.066;2023-05-10T02:29:52;14.60;;;5.33;;
63581;SDS011;49727;51.078;17.066;2023-05-10T02:44:54;12.65;;;5.65;;
63581;SDS011;49727;51.078;17.066;2023-05-10T02:59:59;11.30;;;5.90;;
63581;SDS011;49727;51.078;17.066;2023-05-10T03:15:07;10.00;;;5.20;;
63581;SDS011;49727;51.078;17.066;2023-05-10T03:30:13;8.98;;;5.30;;
63581;SDS011;49727;51.078;17.066;2023-05-10T03:45:14;10.60;;;5.03;;
63581;SDS011;49727;51.078;17.066;2023-05-10T04:00:15;10.15;;;5.10;;
63581;SDS011;49727;51.078;17.066;2023-05-10T04:15:15;8.13;;;4.85;;
63581;SDS011;49727;51.078;17.066;2023-05-10T04:30:16;10.63;;;4.75;;
63581;SDS011;49727;51.078;17.066;2023-05-10T04:45:16;10.40;;;4.63;;
63581;SDS011;49727;51.078;17.066;2023-05-10T05:00:17;15.30;;;6.15;;
63581;SDS011;49727;51.078;17.066;2023-05-10T05:15:17;12.23;;;4.90;;
63581;SDS011;49727;51.078;17.066;2023-05-10T05:30:18;9.13;;;5.00;;
63581;SDS011;49727;51.078;17.066;2023-05-10T05:45:18;8.23;;;4.82;;
63581;SDS011;49727;51.078;17.066;2023-05-10T06:00:18;10.50;;;4.97;;
63581;SDS011;49727;51.078;17.066;2023-05-10T06:15:19;9.32;;;4.75;;
63581;SDS011;49727;51.078;17.066;2023-05-10T06:30:19;9.57;;;4.63;;
63581;SDS011;49727;51.078;17.066;2023-05-10T06:45:22;7.57;;;3.87;;
63581;SDS011;49727;51.078;17.066;2023-05-10T07:00:23;6.25;;;3.75;;
63581;SDS011;49727;51.078;17.066;2023-05-10T07:15:23;8.38;;;4.05;;
63581;SDS011;49727;51.078;17.066;2023-05-10T07:30:24;6.60;;;3.63;;
63581;SDS011;49727;51.078;17.066;2023-05-10T07:45:24;9.05;;;3.60;;
63581;SDS011;49727;51.078;17.066;2023-05-10T08:00:24;5.03;;;2.90;;
63581;SDS011;49727;51.078;17.066;2023-05-10T08:15:26;6.90;;;2.87;;
63581;SDS011;49727;51.078;17.066;2023-05-10T08:30:27;4.90;;;2.72;;
63581;SDS011;49727;51.078;17.066;2023-05-10T08:45:27;5.88;;;2.35;;
63581;SDS011;49727;51.078;17.066;2023-05-10T09:00:32;7.40;;;3.20;;
63581;SDS011;49727;51.078;17.066;2023-05-10T09:15:33;7.17;;;2.77;;
63581;SDS011;49727;51.078;17.066;2023-05-10T09:30:33;8.32;;;2.92;;
63581;SDS011;49727;51.078;17.066;2023-05-10T09:45:34;5.03;;;2.60;;
63581;SDS011;49727;51.078;17.066;2023-05-10T10:00:36;7.90;;;3.00;;
63581;SDS011;49727;51.078;17.066;2023-05-10T10:15:38;4.37;;;2.40;;
63581;SDS011;49727;51.078;17.066;2023-05-10T10:30:42;5.33;;;2.33;;
63581;SDS011;49727;51.078;17.066;2023-05-10T10:45:48;3.37;;;1.93;;
63581;SDS011;49727;51.078;17.066;2023-05-10T11:01:18;4.43;;;2.50;;
63581;SDS011;49727;51.078;17.066;2023-05-10T11:16:19;3.33;;;1.87;;
63581;SDS011;49727;51.078;17.066;2023-05-10T11:31:23;6.33;;;2.03;;
63581;SDS011;49727;51.078;17.066;2023-05-10T11:46:26;7.13;;;2.30;;
63581;SDS011;49727;51.078;17.066;2023-05-10T12:01:28;4.50;;;2.10;;
63581;SDS011;49727;51.078;17.066;2023-05-10T12:16:29;7.47;;;2.10;;
63581;SDS011;49727;51.078;17.066;2023-05-10T12:31:29;6.15;;;1.70;;
63581;SDS011;49727;51.078;17.066;2023-05-10T12:46:30;3.97;;;1.47;;
63581;SDS011;49727;51.078;17.066;2023-05-10T13:01:31;4.65;;;2.00;;
63581;SDS011;49727;51.078;17.066;2023-05-10T13:16:31;3.13;;;1.50;;
63581;SDS011;49727;51.078;17.066;2023-05-10T13:31:31;2.43;;;1.40;;
63581;SDS011;49727;51.078;17.066;2023-05-10T13:46:32;4.20;;;1.63;;
63581;SDS011;49727;51.078;17.066;2023-05-10T14:01:32;4.03;;;2.10;;
63581;SDS011;49727;51.078;17.066;2023-05-10T14:16:33;2.60;;;1.40;;
63581;SDS011;49727;51.078;17.066;2023-05-10T14:31:33;2.70;;;1.60;;
63581;SDS011;49727;51.078;17.066;2023-05-10T14:46:33;2.80;;;1.40;;
63581;SDS011;49727;51.078;17.066;2023-05-10T15:01:34;2.20;;;1.20;;
63581;SDS011;49727;51.078;17.066;2023-05-10T15:16:37;1.43;;;1.20;;
63581;SDS011;49727;51.078;17.066;2023-05-10T15:31:37;8.17;;;1.83;;
63581;SDS011;49727;51.078;17.066;2023-05-10T15:46:39;2.80;;;1.70;;
63581;SDS011;49727;51.078;17.066;2023-05-10T16:01:39;2.00;;;1.40;;
63581;SDS011;49727;51.078;17.066;2023-05-10T16:16:40;1.98;;;1.30;;
63581;SDS011;49727;51.078;17.066;2023-05-10T16:31:40;2.03;;;1.15;;
63581;SDS011;49727;51.078;17.066;2023-05-10T16:46:40;2.70;;;1.67;;
63581;SDS011;49727;51.078;17.066;2023-05-10T17:01:41;2.83;;;1.55;;
63581;SDS011;49727;51.078;17.066;2023-05-10T17:16:41;3.22;;;1.80;;
63581;SDS011;49727;51.078;17.066;2023-05-10T17:31:41;3.38;;;1.80;;
63581;SDS011;49727;51.078;17.066;2023-05-10T17:46:41;3.05;;;1.92;;
63581;SDS011;49727;51.078;17.066;2023-05-10T18:01:42;6.15;;;1.92;;
63581;SDS011;49727;51.078;17.066;2023-05-10T18:16:42;8.07;;;2.53;;
63581;SDS011;49727;51.078;17.066;2023-05-10T18:31:43;7.50;;;3.78;;
63581;SDS011;49727;51.078;17.066;2023-05-10T18:46:43;10.15;;;4.25;;
63581;SDS011;49727;51.078;17.066;2023-05-10T19:01:43;7.95;;;3.33;;
63581;SDS011;49727;51.078;17.066;2023-05-10T19:16:44;7.80;;;3.92;;
63581;SDS011;49727;51.078;17.066;2023-05-10T19:31:44;7.63;;;3.80;;
63581;SDS011;49727;51.078;17.066;2023-05-10T19:46:44;10.85;;;4.70;;
63581;SDS011;49727;51.078;17.066;2023-05-10T20:01:45;7.32;;;4.47;;
63581;SDS011;49727;51.078;17.066;2023-05-10T20:16:45;7.55;;;4.82;;
63581;SDS011;49727;51.078;17.066;2023-05-10T20:31:45;8.27;;;4.78;;
63581;SDS011;49727;51.078;17.066;2023-05-10T20:46:46;8.02;;;4.18;;
63581;SDS011;49727;51.078;17.066;2023-05-10T21:01:46;9.13;;;4.10;;
63581;SDS011;49727;51.078;17.066;2023-05-10T21:16:47;7.30;;;4.20;;
63581;SDS011;49727;51.078;17.066;2023-05-10T21:31:47;8.93;;;4.53;;
63581;SDS011;49727;51.078;17.066;2023-05-10T21:46:47;9.43;;;3.90;;
63581;SDS011;49727;51.078;17.066;2023-05-10T22:01:48;8.07;;;4.70;;
63581;SDS011;49727;51.078;17.066;2023-05-10T22:16:48;9.90;;;4.20;;
63581;SDS011;49727;51.078;17.066;2023-05-10T22:31:48;6.50;;;3.58;;
63581;SDS011;49727;51.078;17.066;2023-05-10T22:46:49;8.27;;;3.72;;
63581;SDS011;49727;51.078;17.066;2023-05-10T23:01:49;8.00;;;3.30;;
63581;SDS011;49727;51.078;17.066;2023-05-10T23:16:50;6.82;;;3.33;;
63581;SDS011;49727;51.078;17.066;2023-05-10T23:31:50;7.20;;;4.13;;
63581;SDS011;49727;51.078;17.066;2023-05-10T23:46:51;6.72;;;3.92;;
